Terminal Aerodrome Forecast
Issued by NWS

Home | Current Version | Previous Version | Text Only | Print | Product List | Glossary On
Versions: 1 2 3 4 5 6 7 8 9 10 11 12 13 14 15 16 17 18 19 20
000
FTUS42 KMLB 181724
TAFFPR
TAF
KFPR 181724Z 1818/1918 09009KT P6SM SCT025 SCT040 SCT250
     FM190000 13004KT P6SM FEW045 SCT250
     FM190400 00000KT 4SM BR FEW005
      TEMPO 1908/1912 1/2SM FG BKN005 BKN015
     FM191500 VRB03KT P6SM SCT025 SCT250=

USA.gov is the U.S. government's official web portal to all federal, state and local government web resources and services.